createdAt,value
2023-03-25T00:00:30.314Z,92.18
2023-03-25T00:01:34.686Z,92.44
2023-03-25T00:02:39.408Z,92.60
2023-03-25T00:03:51.179Z,92.48
2023-03-25T00:04:54.379Z,92.35
2023-03-25T00:05:56.401Z,92.78
2023-03-25T00:07:00.164Z,92.92
2023-03-25T00:08:02.402Z,92.90
2023-03-25T00:09:04.533Z,92.82
2023-03-25T00:10:06.529Z,92.59
2023-03-25T00:11:09.689Z,92.91
2023-03-25T00:12:11.558Z,93.08
2023-03-25T00:13:13.850Z,92.84
2023-03-25T00:14:17.372Z,93.12
2023-03-25T00:15:19.662Z,92.74
2023-03-25T00:16:21.606Z,92.81
2023-03-25T00:17:29.311Z,92.86
2023-03-25T00:18:34.342Z,92.88
2023-03-25T00:19:36.073Z,92.99
2023-03-25T00:20:41.128Z,92.57
2023-03-25T00:21:45.532Z,92.20
2023-03-25T00:22:48.297Z,92.17
2023-03-25T00:23:53.431Z,92.79
2023-03-25T00:24:55.563Z,92.53
2023-03-25T00:26:00.724Z,92.16
2023-03-25T00:27:02.595Z,92.08
2023-03-25T00:28:05.220Z,92.24
2023-03-25T00:29:07.279Z,93.06
2023-03-25T00:30:10.005Z,92.67
2023-03-25T00:31:17.262Z,92.62
2023-03-25T00:32:20.953Z,92.85
2023-03-25T00:33:23.612Z,92.99
2023-03-25T00:34:30.206Z,93.50
2023-03-25T00:35:35.193Z,93.43
2023-03-25T00:36:39.973Z,93.37
2023-03-25T00:37:45.914Z,93.51
2023-03-25T00:38:50.122Z,92.98
2023-03-25T00:39:51.647Z,93.28
2023-03-25T00:40:54.249Z,93.58
2023-03-25T00:41:57.842Z,93.34
2023-03-25T00:42:59.464Z,93.85
2023-03-25T00:44:09.856Z,93.92
2023-03-25T00:45:14.146Z,93.50
2023-03-25T00:46:16.580Z,93.69
2023-03-25T00:47:21.449Z,93.66
2023-03-25T00:48:29.250Z,93.37
2023-03-25T00:49:30.992Z,93.51
2023-03-25T00:50:33.101Z,93.32
2023-03-25T00:51:34.892Z,93.21
2023-03-25T00:52:54.739Z,92.91
2023-03-25T00:54:00.237Z,92.85
2023-03-25T00:55:05.625Z,93.35
2023-03-25T00:56:09.810Z,93.31
2023-03-25T00:57:12.049Z,93.31
2023-03-25T00:58:14.930Z,93.27
2023-03-25T00:59:19.235Z,93.18
2023-03-25T01:00:24.769Z,93.40
2023-03-25T01:01:30.661Z,93.42
2023-03-25T01:02:34.005Z,93.09
2023-03-25T01:03:37.917Z,93.04
2023-03-25T01:04:41.481Z,93.08
2023-03-25T01:05:47.606Z,93.31
2023-03-25T01:06:54.421Z,93.18
2023-03-25T01:07:55.917Z,92.90
2023-03-25T01:08:58.448Z,92.88
2023-03-25T01:09:59.917Z,92.60
2023-03-25T01:11:01.353Z,92.81
2023-03-25T01:12:02.929Z,93.24
2023-03-25T01:13:05.532Z,92.97
2023-03-25T01:14:11.527Z,92.83
2023-03-25T01:15:13.236Z,92.94
2023-03-25T01:16:15.391Z,92.95
2023-03-25T01:17:17.112Z,93.10
2023-03-25T01:18:19.895Z,92.99
2023-03-25T01:19:22.494Z,92.77
2023-03-25T01:20:26.687Z,92.88
2023-03-25T01:21:28.874Z,93.03
2023-03-25T01:22:30.713Z,93.16
2023-03-25T01:23:38.113Z,93.00
2023-03-25T01:24:42.931Z,93.13
2023-03-25T01:25:49.725Z,93.31
2023-03-25T01:26:51.446Z,93.14
2023-03-25T01:27:55.501Z,92.94
2023-03-25T01:28:59.435Z,92.94
2023-03-25T01:30:00.990Z,92.90
2023-03-25T01:31:06.768Z,92.76
2023-03-25T01:32:08.951Z,92.68
2023-03-25T01:33:10.832Z,92.99
2023-03-25T01:34:14.343Z,92.81
2023-03-25T01:35:15.987Z,92.67
2023-03-25T01:36:17.897Z,92.50
2023-03-25T01:37:19.698Z,92.77
2023-03-25T01:38:23.569Z,92.77
2023-03-25T01:39:26.891Z,92.97
2023-03-25T01:40:31.671Z,92.86
2023-03-25T01:41:46.807Z,92.70
2023-03-25T01:42:51.844Z,92.64
2023-03-25T01:44:10.346Z,92.50
2023-03-25T01:45:22.525Z,92.59
2023-03-25T01:46:25.901Z,92.94
2023-03-25T01:47:29.591Z,92.75
2023-03-25T01:48:36.665Z,92.72
2023-03-25T01:49:40.745Z,92.97
2023-03-25T01:50:48.782Z,92.91
2023-03-25T01:51:55.556Z,93.01
2023-03-25T01:52:59.629Z,93.15
2023-03-25T01:54:05.030Z,93.43
2023-03-25T01:55:06.985Z,93.39
2023-03-25T01:56:11.884Z,93.39
2023-03-25T01:57:18.703Z,93.61
2023-03-25T01:58:20.984Z,94.01
2023-03-25T01:59:26.188Z,93.77
2023-03-25T02:00:29.895Z,93.76
2023-03-25T02:01:32.005Z,93.84
2023-03-25T02:02:40.136Z,93.84
2023-03-25T02:03:46.033Z,93.70
2023-03-25T02:04:51.531Z,93.48
2023-03-25T02:05:57.340Z,93.26
2023-03-25T02:06:59.564Z,93.30
2023-03-25T02:08:06.096Z,93.33
2023-03-25T02:09:10.392Z,93.25
2023-03-25T02:10:13.055Z,93.09
2023-03-25T02:11:14.651Z,92.95
2023-03-25T02:12:16.103Z,93.00
2023-03-25T02:13:19.728Z,92.94
2023-03-25T02:14:23.574Z,92.91
2023-03-25T02:15:25.906Z,93.14
2023-03-25T02:16:47.409Z,92.96
2023-03-25T02:17:51.899Z,93.11
2023-03-25T02:19:16.062Z,92.87
2023-03-25T02:20:20.285Z,93.16
2023-03-25T02:21:28.004Z,92.95
2023-03-25T02:22:38.113Z,92.96
2023-03-25T02:24:01.468Z,92.71
2023-03-25T02:25:21.260Z,92.94
2023-03-25T02:26:32.981Z,92.91
2023-03-25T02:28:15.091Z,92.99
2023-03-25T02:29:36.997Z,92.88
2023-03-25T02:30:49.610Z,92.91
2023-03-25T02:32:00.451Z,92.88
2023-03-25T02:33:14.080Z,92.77
2023-03-25T02:34:21.213Z,92.61
2023-03-25T02:35:41.713Z,92.71
2023-03-25T02:36:48.860Z,92.73
2023-03-25T02:37:53.981Z,92.47
2023-03-25T02:39:03.028Z,92.40
2023-03-25T02:40:18.526Z,92.26
2023-03-25T02:41:34.312Z,92.23
2023-03-25T02:42:39.809Z,92.15
2023-03-25T02:44:14.516Z,92.11
2023-03-25T02:45:28.030Z,91.88
2023-03-25T02:46:31.895Z,91.94
2023-03-25T02:47:39.450Z,91.82
2023-03-25T02:48:48.659Z,91.70
2023-03-25T02:49:59.372Z,91.73
2023-03-25T02:51:05.240Z,91.31
2023-03-25T02:52:14.817Z,91.55
2023-03-25T02:53:21.216Z,91.50
2023-03-25T02:54:25.688Z,91.49
2023-03-25T02:55:31.565Z,91.45
2023-03-25T02:56:34.087Z,91.41
2023-03-25T02:57:38.255Z,91.48
2023-03-25T02:58:40.239Z,91.19
2023-03-25T02:59:43.615Z,91.38
2023-03-25T03:00:46.246Z,91.39
2023-03-25T03:01:50.763Z,91.23
2023-03-25T03:03:01.591Z,91.43
2023-03-25T03:04:06.986Z,91.35
2023-03-25T03:05:30.584Z,91.41
2023-03-25T03:06:34.542Z,91.46
2023-03-25T03:07:42.767Z,91.50
2023-03-25T03:08:50.636Z,91.36
2023-03-25T03:10:05.940Z,91.35
2023-03-25T03:11:07.823Z,91.46
2023-03-25T03:12:46.191Z,91.60
2023-03-25T03:14:06.466Z,91.80
2023-03-25T03:15:17.368Z,91.77
2023-03-25T03:16:34.278Z,91.78
2023-03-25T03:17:51.733Z,91.59
2023-03-25T03:18:58.979Z,91.70
2023-03-25T03:20:05.757Z,91.70
2023-03-25T03:21:23.504Z,91.79
2023-03-25T03:22:27.315Z,91.57
2023-03-25T03:23:37.039Z,91.79
2023-03-25T03:24:41.270Z,91.60
2023-03-25T03:25:51.056Z,91.68
2023-03-25T03:27:17.509Z,91.77
2023-03-25T03:28:28.115Z,91.81
2023-03-25T03:29:34.093Z,91.91
2023-03-25T03:30:51.240Z,92.13
2023-03-25T03:32:06.176Z,91.99
2023-03-25T03:33:21.786Z,91.73
2023-03-25T03:34:27.838Z,91.78
2023-03-25T03:35:42.715Z,91.80
2023-03-25T03:36:45.933Z,91.96
2023-03-25T03:37:53.052Z,91.95
2023-03-25T03:38:58.443Z,91.75
2023-03-25T03:40:05.118Z,91.81
2023-03-25T03:41:10.237Z,91.76
2023-03-25T03:42:22.844Z,91.69
2023-03-25T03:43:32.504Z,91.30
2023-03-25T03:44:35.933Z,91.65
2023-03-25T03:45:45.599Z,91.56
2023-03-25T03:46:51.197Z,91.48
2023-03-25T03:47:54.700Z,91.59
2023-03-25T03:48:58.372Z,91.33
2023-03-25T03:50:02.760Z,91.38
2023-03-25T03:51:29.312Z,91.33
2023-03-25T03:52:33.523Z,91.42
2023-03-25T03:53:40.877Z,91.42
2023-03-25T03:54:48.810Z,91.23
2023-03-25T03:55:52.865Z,91.27
2023-03-25T03:57:08.619Z,91.36
2023-03-25T03:58:15.234Z,91.40
2023-03-25T03:59:24.578Z,91.31
2023-03-25T04:00:36.359Z,91.40
2023-03-25T04:01:46.570Z,91.36
2023-03-25T04:03:01.744Z,91.56
2023-03-25T04:04:06.131Z,91.38
2023-03-25T04:05:09.001Z,91.31
2023-03-25T04:06:18.591Z,91.22
2023-03-25T04:07:25.398Z,91.35
2023-03-25T04:08:32.400Z,91.56
2023-03-25T04:09:41.021Z,91.62
2023-03-25T04:10:52.508Z,91.59
2023-03-25T04:11:56.550Z,91.40
2023-03-25T04:13:01.976Z,91.36
2023-03-25T04:14:05.401Z,91.46
2023-03-25T04:15:08.421Z,91.49
2023-03-25T04:16:11.330Z,91.40
2023-03-25T04:17:14.517Z,91.32
2023-03-25T04:18:15.979Z,91.03
2023-03-25T04:19:18.733Z,91.06
2023-03-25T04:20:23.989Z,91.15
2023-03-25T04:21:25.706Z,91.31
2023-03-25T04:22:27.487Z,91.26
2023-03-25T04:23:31.903Z,91.47
2023-03-25T04:24:33.550Z,91.47
2023-03-25T04:25:37.648Z,91.28
2023-03-25T04:26:44.930Z,91.22
2023-03-25T04:27:48.744Z,91.21
2023-03-25T04:28:52.437Z,91.36
2023-03-25T04:29:53.841Z,91.46
2023-03-25T04:31:00.470Z,91.45
2023-03-25T04:32:01.944Z,91.52
2023-03-25T04:33:03.511Z,91.59
2023-03-25T04:34:04.964Z,91.51
2023-03-25T04:35:06.471Z,91.45
2023-03-25T04:36:08.455Z,91.52
2023-03-25T04:37:15.242Z,91.66
2023-03-25T04:38:20.405Z,91.63
2023-03-25T04:39:25.524Z,91.80
2023-03-25T04:40:26.903Z,91.65
2023-03-25T04:41:28.886Z,91.65
2023-03-25T04:42:37.314Z,91.60
2023-03-25T04:43:45.057Z,91.72
2023-03-25T04:44:46.809Z,91.78
2023-03-25T04:45:55.716Z,91.64
2023-03-25T04:46:59.353Z,91.68
2023-03-25T04:48:00.820Z,91.47
2023-03-25T04:49:03.526Z,91.62
2023-03-25T04:50:07.503Z,91.79
2023-03-25T04:51:10.435Z,91.65
2023-03-25T04:52:11.920Z,91.77
2023-03-25T04:53:13.934Z,91.72
2023-03-25T04:54:17.055Z,91.52
2023-03-25T04:55:20.680Z,91.83
2023-03-25T04:56:23.445Z,91.77
2023-03-25T04:57:26.279Z,91.87
2023-03-25T04:58:28.818Z,91.75
2023-03-25T04:59:30.845Z,91.84
2023-03-25T05:00:32.382Z,91.75
2023-03-25T05:01:40.148Z,91.80
2023-03-25T05:02:50.384Z,91.62
2023-03-25T05:03:51.806Z,92.03
2023-03-25T05:04:55.648Z,92.05
2023-03-25T05:05:59.131Z,92.68
2023-03-25T05:07:06.515Z,92.34
2023-03-25T05:08:11.567Z,92.59
2023-03-25T05:09:15.657Z,92.61
2023-03-25T05:10:18.268Z,92.95
2023-03-25T05:11:19.693Z,92.91
2023-03-25T05:12:23.450Z,92.86
2023-03-25T05:13:29.176Z,93.59
2023-03-25T05:14:34.132Z,93.99
2023-03-25T05:15:39.560Z,93.84
2023-03-25T05:16:41.516Z,93.07
2023-03-25T05:17:54.474Z,92.47
2023-03-25T05:18:55.918Z,92.59
2023-03-25T05:19:57.509Z,92.35
2023-03-25T05:21:00.886Z,92.67
2023-03-25T05:22:03.539Z,92.46
2023-03-25T05:23:17.832Z,92.74
2023-03-25T05:24:22.028Z,92.82
2023-03-25T05:25:26.913Z,93.07
2023-03-25T05:26:34.219Z,93.16
2023-03-25T05:27:36.339Z,93.36
2023-03-25T05:28:40.357Z,93.49
2023-03-25T05:29:44.586Z,93.69
2023-03-25T05:30:49.450Z,93.72
2023-03-25T05:31:51.831Z,93.25
2023-03-25T05:32:57.113Z,93.49
2023-03-25T05:33:58.980Z,93.45
2023-03-25T05:35:01.465Z,93.61
2023-03-25T05:36:04.595Z,93.63
2023-03-25T05:37:13.021Z,93.45
2023-03-25T05:38:19.135Z,93.77
2023-03-25T05:39:20.968Z,93.84
2023-03-25T05:40:22.516Z,93.81
2023-03-25T05:41:32.697Z,94.01
2023-03-25T05:42:34.973Z,93.91
2023-03-25T05:43:37.558Z,94.03
2023-03-25T05:44:51.081Z,93.94
2023-03-25T05:45:52.856Z,94.57
2023-03-25T05:46:59.342Z,94.45
2023-03-25T05:48:01.791Z,94.83
2023-03-25T05:49:03.431Z,94.90
2023-03-25T05:50:05.210Z,95.15
2023-03-25T05:51:13.957Z,95.20
2023-03-25T05:52:16.955Z,95.32
2023-03-25T05:53:20.714Z,95.25
2023-03-25T05:54:25.789Z,95.51
2023-03-25T05:55:30.298Z,95.79
2023-03-25T05:56:31.796Z,95.76
2023-03-25T05:57:34.516Z,96.69
2023-03-25T05:58:36.391Z,96.73
2023-03-25T05:59:38.848Z,97.03
2023-03-25T06:00:42.947Z,97.10
2023-03-25T06:01:45.467Z,96.85
2023-03-25T06:02:48.779Z,96.93
2023-03-25T06:03:50.685Z,97.30
2023-03-25T06:04:52.314Z,97.73
2023-03-25T06:05:53.835Z,97.84
2023-03-25T06:06:55.250Z,97.94
2023-03-25T06:07:57.441Z,97.74
2023-03-25T06:08:58.983Z,97.94
2023-03-25T06:10:00.383Z,98.07
2023-03-25T06:11:04.707Z,97.99
2023-03-25T06:12:06.740Z,98.04
2023-03-25T06:13:08.501Z,98.01
2023-03-25T06:14:10.324Z,97.98
2023-03-25T06:15:14.517Z,98.19
2023-03-25T06:16:20.730Z,98.20
2023-03-25T06:17:22.479Z,98.39
2023-03-25T06:18:26.918Z,98.54
2023-03-25T06:19:28.813Z,98.43
2023-03-25T06:20:30.253Z,98.72
2023-03-25T06:21:34.372Z,98.83
2023-03-25T06:22:37.771Z,98.66
2023-03-25T06:23:39.304Z,98.21
2023-03-25T06:24:43.571Z,98.37
2023-03-25T06:25:45.002Z,98.46
2023-03-25T06:26:46.521Z,98.29
2023-03-25T06:27:49.269Z,98.43
2023-03-25T06:28:54.578Z,98.46
2023-03-25T06:29:56.036Z,98.52
2023-03-25T06:30:57.488Z,98.26
2023-03-25T06:31:58.913Z,97.96
2023-03-25T06:33:05.961Z,96.74
2023-03-25T06:34:08.001Z,96.25
2023-03-25T06:35:10.257Z,96.09
2023-03-25T06:36:16.248Z,95.73
2023-03-25T06:37:19.801Z,95.75
2023-03-25T06:38:29.097Z,95.68
2023-03-25T06:39:52.651Z,95.84
2023-03-25T06:40:56.937Z,95.99
2023-03-25T06:41:58.849Z,96.28
2023-03-25T06:43:31.104Z,96.44
2023-03-25T06:44:54.009Z,96.41
2023-03-25T06:46:14.077Z,96.52
2023-03-25T06:47:36.881Z,96.86
2023-03-25T06:48:39.051Z,96.83
2023-03-25T06:49:40.717Z,96.64
2023-03-25T06:50:43.743Z,96.63
2023-03-25T06:51:51.194Z,96.87
2023-03-25T06:52:52.971Z,96.78
2023-03-25T06:53:59.410Z,96.88
2023-03-25T06:55:00.989Z,96.84
2023-03-25T06:56:02.587Z,96.94
2023-03-25T06:57:04.580Z,96.83
2023-03-25T06:58:08.477Z,97.11
2023-03-25T06:59:14.219Z,96.83
2023-03-25T07:00:20.256Z,97.14
2023-03-25T07:01:23.673Z,97.36
2023-03-25T07:02:31.020Z,97.44
2023-03-25T07:03:35.852Z,97.80
2023-03-25T07:04:39.043Z,97.64
2023-03-25T07:05:45.591Z,98.06
2023-03-25T07:06:47.910Z,97.84
2023-03-25T07:07:49.385Z,98.09
2023-03-25T07:08:51.131Z,97.86
2023-03-25T07:09:55.184Z,97.92
2023-03-25T07:11:04.479Z,97.82
2023-03-25T07:12:08.810Z,97.95
2023-03-25T07:13:11.344Z,97.98
2023-03-25T07:14:12.910Z,98.00
2023-03-25T07:15:19.596Z,98.19
2023-03-25T07:16:22.169Z,98.13
2023-03-25T07:17:24.673Z,98.01
2023-03-25T07:18:26.693Z,97.82
2023-03-25T07:19:31.847Z,98.28
2023-03-25T07:20:36.675Z,97.88
2023-03-25T07:21:38.810Z,97.97
2023-03-25T07:22:42.875Z,97.72
2023-03-25T07:23:49.068Z,97.73
2023-03-25T07:24:54.405Z,97.43
2023-03-25T07:25:56.946Z,97.53
2023-03-25T07:26:59.328Z,97.21
2023-03-25T07:28:03.363Z,97.30
2023-03-25T07:29:08.675Z,97.54
2023-03-25T07:30:10.754Z,97.76
2023-03-25T07:31:14.964Z,97.61
2023-03-25T07:32:16.477Z,97.42
2023-03-25T07:33:17.949Z,97.12
2023-03-25T07:34:21.908Z,97.55
2023-03-25T07:35:23.635Z,97.61
2023-03-25T07:36:31.133Z,97.65
2023-03-25T07:37:32.695Z,97.85
2023-03-25T07:38:34.893Z,97.60
2023-03-25T07:39:36.342Z,96.98
2023-03-25T07:40:38.425Z,96.77
2023-03-25T07:41:43.245Z,96.63
2023-03-25T07:42:56.713Z,96.80
2023-03-25T07:44:16.509Z,96.48
2023-03-25T07:45:19.480Z,96.04
2023-03-25T07:46:21.891Z,96.16
2023-03-25T07:47:26.662Z,95.51
2023-03-25T07:48:28.733Z,95.05
2023-03-25T07:49:31.695Z,95.11
2023-03-25T07:50:35.723Z,95.23
2023-03-25T07:51:37.124Z,94.94
2023-03-25T07:52:39.036Z,94.64
2023-03-25T07:53:43.038Z,94.14
2023-03-25T07:54:47.808Z,93.82
2023-03-25T07:55:51.454Z,93.93
2023-03-25T07:56:56.371Z,93.80
2023-03-25T07:57:58.764Z,93.64
2023-03-25T07:59:00.635Z,93.68
2023-03-25T08:00:10.132Z,93.59
2023-03-25T08:01:14.516Z,92.59
2023-03-25T08:02:19.059Z,92.55
2023-03-25T08:03:22.596Z,92.69
2023-03-25T08:04:25.142Z,92.81
2023-03-25T08:05:30.977Z,92.45
2023-03-25T08:06:32.398Z,92.69
2023-03-25T08:07:34.357Z,92.38
2023-03-25T08:08:38.229Z,92.57
2023-03-25T08:09:43.867Z,92.67
2023-03-25T08:10:49.109Z,92.59
2023-03-25T08:11:51.550Z,92.19
2023-03-25T08:12:55.268Z,92.21
2023-03-25T08:13:56.965Z,92.30
2023-03-25T08:15:00.001Z,92.28
2023-03-25T08:16:01.769Z,91.57
2023-03-25T08:17:10.251Z,91.55
2023-03-25T08:18:14.489Z,91.72
2023-03-25T08:19:16.043Z,91.86
2023-03-25T08:20:18.114Z,91.62
2023-03-25T08:21:26.951Z,91.65
2023-03-25T08:22:31.637Z,90.99
2023-03-25T08:23:36.879Z,91.70
2023-03-25T08:24:39.341Z,91.58
2023-03-25T08:25:43.147Z,91.29
2023-03-25T08:26:45.231Z,91.08
2023-03-25T08:27:49.048Z,90.36
2023-03-25T08:29:00.108Z,90.32
2023-03-25T08:30:02.431Z,90.44
2023-03-25T08:31:09.507Z,90.80
2023-03-25T08:32:15.248Z,91.25
2023-03-25T08:33:19.103Z,91.71
2023-03-25T08:34:22.367Z,91.57
2023-03-25T08:35:30.827Z,91.86
2023-03-25T08:36:32.449Z,91.33
2023-03-25T08:37:37.861Z,90.30
2023-03-25T08:38:41.572Z,90.10
2023-03-25T08:39:45.330Z,89.61
2023-03-25T08:40:49.923Z,90.17
2023-03-25T08:41:51.632Z,90.26
2023-03-25T08:42:53.542Z,89.90
2023-03-25T08:43:56.611Z,89.66
2023-03-25T08:45:02.190Z,88.63
2023-03-25T08:46:06.913Z,88.95
2023-03-25T08:47:09.217Z,88.61
2023-03-25T08:48:10.889Z,88.36
2023-03-25T08:49:15.565Z,87.70
2023-03-25T08:50:17.377Z,88.41
2023-03-25T08:51:20.033Z,88.25
2023-03-25T08:52:21.580Z,87.77
2023-03-25T08:53:23.596Z,88.23
2023-03-25T08:54:26.212Z,88.33
2023-03-25T08:55:27.984Z,88.56
2023-03-25T08:56:35.089Z,88.70
2023-03-25T08:57:37.908Z,88.71
2023-03-25T08:58:39.483Z,89.05
2023-03-25T08:59:41.065Z,88.65
2023-03-25T09:00:44.464Z,89.36
2023-03-25T09:01:51.465Z,90.08
2023-03-25T09:02:55.163Z,90.45
2023-03-25T09:03:57.794Z,90.63
2023-03-25T09:04:59.452Z,91.08
2023-03-25T09:06:08.671Z,91.05
2023-03-25T09:07:12.538Z,91.30
2023-03-25T09:08:14.876Z,91.48
2023-03-25T09:09:20.461Z,91.79
2023-03-25T09:10:25.548Z,91.82
2023-03-25T09:11:36.620Z,92.16
2023-03-25T09:12:39.352Z,92.45
2023-03-25T09:13:41.424Z,92.48
2023-03-25T09:14:45.153Z,92.49
2023-03-25T09:15:51.226Z,92.50
2023-03-25T09:16:53.298Z,92.54
2023-03-25T09:17:55.244Z,93.09
2023-03-25T09:19:05.036Z,93.46
2023-03-25T09:20:10.787Z,93.57
2023-03-25T09:21:13.676Z,93.97
2023-03-25T09:22:19.187Z,93.82
2023-03-25T09:23:20.786Z,93.85
2023-03-25T09:24:24.553Z,94.07
2023-03-25T09:25:26.222Z,94.26
2023-03-25T09:26:30.684Z,94.36
2023-03-25T09:27:34.709Z,93.87
2023-03-25T09:28:36.203Z,93.27
2023-03-25T09:29:38.174Z,93.12
2023-03-25T09:30:42.094Z,92.79
2023-03-25T09:31:45.459Z,92.83
2023-03-25T09:32:48.280Z,92.68
2023-03-25T09:33:50.045Z,92.85
2023-03-25T09:34:51.775Z,93.14
2023-03-25T09:35:54.596Z,92.99
2023-03-25T09:36:56.337Z,92.78
2023-03-25T09:38:00.155Z,92.67
2023-03-25T09:39:02.015Z,92.89
2023-03-25T09:40:08.548Z,92.92
2023-03-25T09:41:32.232Z,93.28
2023-03-25T09:42:47.574Z,91.24
2023-03-25T09:44:03.012Z,90.66
2023-03-25T09:45:11.514Z,90.69
2023-03-25T09:46:14.576Z,90.85
2023-03-25T09:47:18.081Z,91.09
2023-03-25T09:48:29.245Z,90.78
2023-03-25T09:49:40.947Z,91.13
2023-03-25T09:50:44.183Z,91.26
2023-03-25T09:51:49.856Z,90.37
2023-03-25T09:53:02.922Z,90.47
2023-03-25T09:54:27.856Z,90.04
2023-03-25T09:55:31.068Z,89.16
2023-03-25T09:56:42.528Z,88.94
2023-03-25T09:57:51.726Z,88.30
2023-03-25T09:58:56.247Z,88.13
2023-03-25T09:59:59.161Z,87.35
2023-03-25T10:01:06.743Z,87.02
2023-03-25T10:02:27.634Z,87.27
2023-03-25T10:03:46.137Z,87.64
2023-03-25T10:05:02.934Z,87.59
2023-03-25T10:06:09.580Z,87.10
2023-03-25T10:07:27.438Z,86.71
2023-03-25T10:08:40.852Z,86.67
2023-03-25T10:09:50.771Z,86.71
2023-03-25T10:11:06.651Z,85.28
2023-03-25T10:12:13.359Z,86.55
2023-03-25T10:13:22.483Z,86.61
2023-03-25T10:14:37.879Z,86.54
2023-03-25T10:15:39.410Z,85.94
2023-03-25T10:16:50.697Z,86.43
2023-03-25T10:18:18.654Z,86.62
2023-03-25T10:19:28.913Z,86.07
2023-03-25T10:20:42.241Z,85.24
2023-03-25T10:21:46.865Z,86.49
2023-03-25T10:23:00.530Z,86.56
2023-03-25T10:24:07.942Z,86.92
2023-03-25T10:25:17.628Z,86.93
2023-03-25T10:26:29.653Z,87.34
2023-03-25T10:27:38.120Z,87.63
2023-03-25T10:28:48.711Z,87.75
2023-03-25T10:29:56.227Z,87.34
2023-03-25T10:31:01.221Z,86.38
2023-03-25T10:32:09.384Z,86.75
2023-03-25T10:33:23.364Z,87.08
2023-03-25T10:34:35.034Z,86.73
2023-03-25T10:35:40.589Z,86.02
2023-03-25T10:37:02.207Z,86.15
2023-03-25T10:38:13.829Z,86.14
2023-03-25T10:39:19.622Z,86.40
2023-03-25T10:40:33.665Z,86.80
2023-03-25T10:41:38.822Z,87.09
2023-03-25T10:42:55.571Z,86.80
2023-03-25T10:43:57.463Z,86.20
2023-03-25T10:44:59.789Z,86.29
2023-03-25T10:46:08.991Z,86.66
2023-03-25T10:47:14.760Z,85.55
2023-03-25T10:48:20.283Z,85.92
2023-03-25T10:49:24.585Z,85.93
2023-03-25T10:50:26.204Z,85.54
2023-03-25T10:51:32.152Z,85.33
2023-03-25T10:52:33.860Z,84.08
2023-03-25T10:53:35.600Z,84.35
2023-03-25T10:54:41.218Z,83.23
2023-03-25T10:55:42.711Z,83.04
2023-03-25T10:56:46.618Z,81.98
2023-03-25T10:57:49.055Z,82.90
2023-03-25T10:58:54.545Z,82.61
2023-03-25T10:59:59.150Z,82.50
2023-03-25T11:01:04.020Z,82.88
2023-03-25T11:02:15.567Z,83.16
2023-03-25T11:03:30.807Z,83.37
2023-03-25T11:04:37.916Z,83.07
2023-03-25T11:05:39.522Z,83.03
2023-03-25T11:06:42.276Z,82.30
2023-03-25T11:07:45.901Z,82.84
2023-03-25T11:09:07.981Z,82.91
2023-03-25T11:10:17.458Z,82.48
2023-03-25T11:11:19.000Z,82.03
2023-03-25T11:12:33.286Z,81.71
2023-03-25T11:13:44.281Z,81.01
2023-03-25T11:14:56.907Z,80.88
2023-03-25T11:15:59.958Z,80.83
2023-03-25T11:17:05.796Z,80.91
2023-03-25T11:18:26.353Z,81.60
2023-03-25T11:19:31.536Z,82.14
2023-03-25T11:20:39.782Z,82.39
2023-03-25T11:21:45.872Z,81.92
2023-03-25T11:22:49.947Z,82.04
2023-03-25T11:23:52.218Z,81.43
2023-03-25T11:25:00.716Z,81.96
2023-03-25T11:26:06.840Z,82.32
2023-03-25T11:27:09.015Z,82.00
2023-03-25T11:28:20.849Z,81.50
2023-03-25T11:29:24.740Z,81.34
2023-03-25T11:30:26.706Z,81.45
2023-03-25T11:31:30.507Z,81.96
2023-03-25T11:32:39.137Z,82.67
2023-03-25T11:33:42.043Z,82.78
2023-03-25T11:34:48.132Z,82.75
2023-03-25T11:35:49.879Z,83.11
2023-03-25T11:36:59.503Z,83.52
2023-03-25T11:38:02.835Z,83.06
2023-03-25T11:39:14.156Z,82.59
2023-03-25T11:40:17.117Z,82.55
2023-03-25T11:41:18.904Z,83.38
2023-03-25T11:42:22.251Z,83.49
2023-03-25T11:43:26.252Z,83.72
2023-03-25T11:44:29.406Z,84.55
2023-03-25T11:45:35.496Z,84.97
2023-03-25T11:46:42.977Z,85.60
2023-03-25T11:47:44.857Z,85.35
2023-03-25T11:48:48.944Z,85.47
2023-03-25T11:49:52.648Z,85.66
2023-03-25T11:50:55.792Z,85.96
2023-03-25T11:51:58.923Z,86.14
2023-03-25T11:53:01.617Z,86.44
2023-03-25T11:54:06.066Z,86.72
2023-03-25T11:55:16.252Z,86.68
2023-03-25T11:56:23.404Z,86.85
2023-03-25T11:57:31.551Z,87.12
2023-03-25T11:58:36.072Z,87.37
2023-03-25T11:59:42.969Z,87.26
2023-03-25T12:00:51.675Z,87.63
2023-03-25T12:02:01.556Z,87.79
2023-03-25T12:03:05.371Z,87.91
2023-03-25T12:04:13.200Z,87.52
2023-03-25T12:05:16.562Z,86.96
2023-03-25T12:06:22.368Z,87.58
2023-03-25T12:07:24.475Z,88.25
2023-03-25T12:08:28.816Z,88.34
2023-03-25T12:09:34.719Z,88.42
2023-03-25T12:10:44.373Z,88.88
2023-03-25T12:12:12.102Z,88.76
2023-03-25T12:13:32.112Z,87.96
2023-03-25T12:14:45.648Z,87.02
2023-03-25T12:15:56.049Z,87.44
2023-03-25T12:17:05.754Z,87.79
2023-03-25T12:18:16.597Z,88.21
2023-03-25T12:19:30.136Z,88.69
2023-03-25T12:20:31.740Z,88.94
2023-03-25T12:21:56.199Z,88.87
2023-03-25T12:23:02.420Z,89.01
2023-03-25T12:24:13.572Z,89.44
2023-03-25T12:25:27.497Z,89.06
2023-03-25T12:26:28.964Z,89.49
2023-03-25T12:27:37.008Z,89.45
2023-03-25T12:28:44.826Z,89.59
2023-03-25T12:30:06.313Z,89.84
2023-03-25T12:31:30.650Z,89.95
2023-03-25T12:32:34.519Z,89.57
2023-03-25T12:34:00.137Z,89.69
2023-03-25T12:35:14.752Z,89.99
2023-03-25T12:36:24.750Z,90.12
2023-03-25T12:37:45.080Z,90.24
2023-03-25T12:38:55.763Z,89.89
2023-03-25T12:40:15.851Z,90.24
2023-03-25T12:41:46.532Z,90.00
2023-03-25T12:43:05.626Z,89.71
2023-03-25T12:44:10.153Z,89.64
2023-03-25T12:45:31.499Z,89.67
2023-03-25T12:46:53.627Z,89.94
2023-03-25T12:48:04.077Z,90.07
2023-03-25T12:49:26.991Z,90.44
2023-03-25T12:50:47.783Z,89.96
2023-03-25T12:52:04.710Z,89.82
2023-03-25T12:53:06.213Z,90.27
2023-03-25T12:54:07.803Z,90.52
2023-03-25T12:55:09.210Z,90.56
2023-03-25T12:56:45.962Z,90.36
2023-03-25T12:58:26.032Z,90.87
2023-03-25T12:59:27.874Z,91.50
2023-03-25T13:00:36.984Z,91.67
2023-03-25T13:02:04.456Z,91.26
2023-03-25T13:03:19.583Z,90.88
2023-03-25T13:04:49.321Z,91.01
2023-03-25T13:06:09.494Z,91.34
2023-03-25T13:07:23.340Z,91.48
2023-03-25T13:08:35.539Z,89.90
2023-03-25T13:09:51.264Z,89.81
2023-03-25T13:11:03.289Z,89.92
2023-03-25T13:12:10.374Z,89.98
2023-03-25T13:13:17.928Z,90.09
2023-03-25T13:14:24.358Z,90.49
2023-03-25T13:15:28.124Z,90.89
2023-03-25T13:16:31.937Z,90.39
2023-03-25T13:17:40.789Z,88.93
2023-03-25T13:18:56.135Z,88.01
2023-03-25T13:20:00.892Z,88.20
2023-03-25T13:21:13.231Z,88.31
2023-03-25T13:22:23.980Z,88.03
2023-03-25T13:23:27.757Z,88.12
2023-03-25T13:24:43.221Z,88.52
2023-03-25T13:25:51.993Z,88.95
2023-03-25T13:26:54.041Z,88.91
2023-03-25T13:27:59.871Z,88.85
2023-03-25T13:29:05.452Z,89.05
2023-03-25T13:30:12.855Z,89.06
2023-03-25T13:31:18.194Z,89.10
2023-03-25T13:32:25.585Z,89.56
2023-03-25T13:33:28.718Z,89.77
2023-03-25T13:34:59.690Z,90.02
2023-03-25T13:36:08.456Z,90.30
2023-03-25T13:37:19.421Z,90.50
2023-03-25T13:38:35.791Z,91.15
2023-03-25T13:39:43.355Z,91.10
2023-03-25T13:40:49.263Z,91.03
2023-03-25T13:42:06.705Z,91.12
2023-03-25T13:43:21.437Z,91.08
2023-03-25T13:44:27.952Z,91.23
2023-03-25T13:45:46.084Z,91.10
2023-03-25T13:46:49.954Z,91.57
2023-03-25T13:48:04.895Z,91.56
2023-03-25T13:49:23.790Z,91.71
2023-03-25T13:50:28.519Z,91.83
2023-03-25T13:51:30.046Z,91.53
2023-03-25T13:52:37.745Z,91.48
2023-03-25T13:53:46.706Z,91.57
2023-03-25T13:54:54.651Z,91.58
2023-03-25T13:56:11.810Z,91.72
2023-03-25T13:57:17.298Z,91.79
2023-03-25T13:58:27.934Z,91.78
2023-03-25T13:59:48.520Z,91.70
2023-03-25T14:01:03.375Z,92.18
2023-03-25T14:02:23.176Z,92.27
2023-03-25T14:03:44.612Z,92.27
2023-03-25T14:05:04.954Z,92.67
2023-03-25T14:06:25.220Z,92.67
2023-03-25T14:07:44.958Z,92.93
2023-03-25T14:08:49.389Z,93.07
2023-03-25T14:09:59.928Z,93.23
2023-03-25T14:11:10.844Z,93.38
2023-03-25T14:12:23.489Z,93.58
2023-03-25T14:13:31.939Z,93.59
2023-03-25T14:14:36.532Z,93.60
2023-03-25T14:15:39.602Z,94.15
2023-03-25T14:16:52.022Z,93.90
2023-03-25T14:17:57.472Z,93.91
2023-03-25T14:19:02.370Z,94.21
2023-03-25T14:20:08.498Z,94.31